sensor_id;sensor_type;location;lat;lon;timestamp;P1;durP1;ratioP1;P2;durP2;ratioP2
52742;SDS011;55583;53.012;6.556;2022-07-23T00:00:46;8.32;;;5.07;;
52742;SDS011;55583;53.012;6.556;2022-07-23T00:03:12;9.93;;;5.07;;
52742;SDS011;55583;53.012;6.556;2022-07-23T00:05:38;12.05;;;5.78;;
52742;SDS011;55583;53.012;6.556;2022-07-23T00:08:04;7.13;;;6.30;;
52742;SDS011;55583;53.012;6.556;2022-07-23T00:10:31;10.60;;;6.13;;
52742;SDS011;55583;53.012;6.556;2022-07-23T00:12:57;9.93;;;5.68;;
52742;SDS011;55583;53.012;6.556;2022-07-23T00:15:22;11.30;;;6.70;;
52742;SDS011;55583;53.012;6.556;2022-07-23T00:17:48;11.10;;;6.50;;
52742;SDS011;55583;53.012;6.556;2022-07-23T00:20:14;15.77;;;6.70;;
52742;SDS011;55583;53.012;6.556;2022-07-23T00:22:53;11.75;;;6.40;;
52742;SDS011;55583;53.012;6.556;2022-07-23T00:25:20;11.20;;;6.13;;
52742;SDS011;55583;53.012;6.556;2022-07-23T00:27:46;13.32;;;6.47;;
52742;SDS011;55583;53.012;6.556;2022-07-23T00:30:12;9.30;;;6.03;;
52742;SDS011;55583;53.012;6.556;2022-07-23T00:32:48;11.13;;;6.82;;
52742;SDS011;55583;53.012;6.556;2022-07-23T00:35:16;10.60;;;6.47;;
52742;SDS011;55583;53.012;6.556;2022-07-23T00:37:44;14.57;;;7.13;;
52742;SDS011;55583;53.012;6.556;2022-07-23T00:40:10;9.18;;;6.95;;
52742;SDS011;55583;53.012;6.556;2022-07-23T00:42:36;6.53;;;5.80;;
52742;SDS011;55583;53.012;6.556;2022-07-23T00:45:02;15.23;;;7.93;;
52742;SDS011;55583;53.012;6.556;2022-07-23T00:47:28;11.48;;;6.78;;
52742;SDS011;55583;53.012;6.556;2022-07-23T00:49:54;13.30;;;7.53;;
52742;SDS011;55583;53.012;6.556;2022-07-23T00:52:19;15.98;;;7.00;;
52742;SDS011;55583;53.012;6.556;2022-07-23T00:54:45;11.65;;;7.05;;
52742;SDS011;55583;53.012;6.556;2022-07-23T00:57:11;9.75;;;6.50;;
52742;SDS011;55583;53.012;6.556;2022-07-23T00:59:38;12.48;;;6.50;;
52742;SDS011;55583;53.012;6.556;2022-07-23T01:02:04;8.27;;;6.68;;
52742;SDS011;55583;53.012;6.556;2022-07-23T01:04:30;11.45;;;6.65;;
52742;SDS011;55583;53.012;6.556;2022-07-23T01:06:55;10.95;;;6.60;;
52742;SDS011;55583;53.012;6.556;2022-07-23T01:09:21;15.98;;;7.05;;
52742;SDS011;55583;53.012;6.556;2022-07-23T01:11:47;11.27;;;6.50;;
52742;SDS011;55583;53.012;6.556;2022-07-23T01:14:14;9.73;;;6.78;;
52742;SDS011;55583;53.012;6.556;2022-07-23T01:16:42;12.65;;;6.80;;
52742;SDS011;55583;53.012;6.556;2022-07-23T01:19:08;11.40;;;6.35;;
52742;SDS011;55583;53.012;6.556;2022-07-23T01:21:35;11.90;;;6.20;;
52742;SDS011;55583;53.012;6.556;2022-07-23T01:24:03;17.52;;;7.45;;
52742;SDS011;55583;53.012;6.556;2022-07-23T01:26:29;12.35;;;7.10;;
52742;SDS011;55583;53.012;6.556;2022-07-23T01:28:55;13.05;;;6.38;;
52742;SDS011;55583;53.012;6.556;2022-07-23T01:31:21;11.55;;;6.43;;
52742;SDS011;55583;53.012;6.556;2022-07-23T01:33:47;11.23;;;6.47;;
52742;SDS011;55583;53.012;6.556;2022-07-23T01:36:13;10.00;;;6.05;;
52742;SDS011;55583;53.012;6.556;2022-07-23T01:38:38;14.38;;;6.05;;
52742;SDS011;55583;53.012;6.556;2022-07-23T01:41:04;12.40;;;6.68;;
52742;SDS011;55583;53.012;6.556;2022-07-23T01:43:29;12.55;;;8.10;;
52742;SDS011;55583;53.012;6.556;2022-07-23T01:45:55;12.30;;;7.95;;
52742;SDS011;55583;53.012;6.556;2022-07-23T01:48:21;16.80;;;7.88;;
52742;SDS011;55583;53.012;6.556;2022-07-23T01:50:47;14.32;;;8.43;;
52742;SDS011;55583;53.012;6.556;2022-07-23T01:53:13;15.25;;;8.23;;
52742;SDS011;55583;53.012;6.556;2022-07-23T01:55:39;12.95;;;7.88;;
52742;SDS011;55583;53.012;6.556;2022-07-23T01:58:05;16.17;;;7.93;;
52742;SDS011;55583;53.012;6.556;2022-07-23T02:00:30;12.18;;;7.32;;
52742;SDS011;55583;53.012;6.556;2022-07-23T02:02:57;19.02;;;10.43;;
52742;SDS011;55583;53.012;6.556;2022-07-23T02:05:23;13.77;;;9.20;;
52742;SDS011;55583;53.012;6.556;2022-07-23T02:10:22;18.02;;;9.18;;
52742;SDS011;55583;53.012;6.556;2022-07-23T02:12:48;16.75;;;8.43;;
52742;SDS011;55583;53.012;6.556;2022-07-23T02:15:14;18.00;;;8.88;;
52742;SDS011;55583;53.012;6.556;2022-07-23T02:17:40;18.88;;;9.75;;
52742;SDS011;55583;53.012;6.556;2022-07-23T02:20:07;16.13;;;8.50;;
52742;SDS011;55583;53.012;6.556;2022-07-23T02:22:34;16.48;;;8.90;;
52742;SDS011;55583;53.012;6.556;2022-07-23T02:25:01;18.13;;;8.55;;
52742;SDS011;55583;53.012;6.556;2022-07-23T02:27:26;17.70;;;9.10;;
52742;SDS011;55583;53.012;6.556;2022-07-23T02:29:53;15.02;;;9.40;;
52742;SDS011;55583;53.012;6.556;2022-07-23T02:32:18;14.60;;;8.25;;
52742;SDS011;55583;53.012;6.556;2022-07-23T02:34:46;15.52;;;8.45;;
52742;SDS011;55583;53.012;6.556;2022-07-23T02:37:12;10.77;;;7.30;;
52742;SDS011;55583;53.012;6.556;2022-07-23T02:39:37;11.43;;;7.15;;
52742;SDS011;55583;53.012;6.556;2022-07-23T02:42:03;16.23;;;7.90;;
52742;SDS011;55583;53.012;6.556;2022-07-23T02:44:29;15.73;;;7.88;;
52742;SDS011;55583;53.012;6.556;2022-07-23T02:46:55;15.20;;;7.80;;
52742;SDS011;55583;53.012;6.556;2022-07-23T02:49:20;11.77;;;7.05;;
52742;SDS011;55583;53.012;6.556;2022-07-23T02:51:46;14.50;;;8.65;;
52742;SDS011;55583;53.012;6.556;2022-07-23T02:54:12;13.77;;;8.07;;
52742;SDS011;55583;53.012;6.556;2022-07-23T02:56:37;13.88;;;7.68;;
52742;SDS011;55583;53.012;6.556;2022-07-23T02:59:03;16.55;;;9.55;;
52742;SDS011;55583;53.012;6.556;2022-07-23T03:01:29;16.63;;;8.25;;
52742;SDS011;55583;53.012;6.556;2022-07-23T03:03:54;12.45;;;8.07;;
52742;SDS011;55583;53.012;6.556;2022-07-23T03:06:20;14.90;;;7.72;;
52742;SDS011;55583;53.012;6.556;2022-07-23T03:08:45;17.50;;;9.02;;
52742;SDS011;55583;53.012;6.556;2022-07-23T03:11:11;27.98;;;11.25;;
52742;SDS011;55583;53.012;6.556;2022-07-23T03:13:37;13.27;;;8.95;;
52742;SDS011;55583;53.012;6.556;2022-07-23T03:16:03;18.17;;;9.52;;
52742;SDS011;55583;53.012;6.556;2022-07-23T03:18:29;14.60;;;8.82;;
52742;SDS011;55583;53.012;6.556;2022-07-23T03:20:55;16.33;;;8.60;;
52742;SDS011;55583;53.012;6.556;2022-07-23T03:23:21;16.75;;;8.05;;
52742;SDS011;55583;53.012;6.556;2022-07-23T03:25:46;20.65;;;8.88;;
52742;SDS011;55583;53.012;6.556;2022-07-23T03:28:15;16.13;;;10.43;;
52742;SDS011;55583;53.012;6.556;2022-07-23T03:30:41;24.15;;;10.85;;
52742;SDS011;55583;53.012;6.556;2022-07-23T03:33:07;17.92;;;10.55;;
52742;SDS011;55583;53.012;6.556;2022-07-23T03:35:33;16.45;;;10.23;;
52742;SDS011;55583;53.012;6.556;2022-07-23T03:37:59;19.92;;;9.80;;
52742;SDS011;55583;53.012;6.556;2022-07-23T03:40:24;14.52;;;8.75;;
52742;SDS011;55583;53.012;6.556;2022-07-23T03:42:50;13.82;;;8.73;;
52742;SDS011;55583;53.012;6.556;2022-07-23T03:45:16;20.80;;;8.82;;
52742;SDS011;55583;53.012;6.556;2022-07-23T03:47:41;16.30;;;8.80;;
52742;SDS011;55583;53.012;6.556;2022-07-23T03:50:08;21.55;;;9.95;;
52742;SDS011;55583;53.012;6.556;2022-07-23T03:52:34;26.23;;;11.48;;
52742;SDS011;55583;53.012;6.556;2022-07-23T03:54:59;19.77;;;10.77;;
52742;SDS011;55583;53.012;6.556;2022-07-23T03:57:25;19.25;;;9.07;;
52742;SDS011;55583;53.012;6.556;2022-07-23T03:59:51;19.58;;;8.88;;
52742;SDS011;55583;53.012;6.556;2022-07-23T04:02:17;16.70;;;9.50;;
52742;SDS011;55583;53.012;6.556;2022-07-23T04:04:42;19.15;;;10.95;;
52742;SDS011;55583;53.012;6.556;2022-07-23T04:07:08;23.70;;;11.30;;
52742;SDS011;55583;53.012;6.556;2022-07-23T04:09:33;21.70;;;10.68;;
52742;SDS011;55583;53.012;6.556;2022-07-23T04:11:59;20.75;;;11.52;;
52742;SDS011;55583;53.012;6.556;2022-07-23T04:14:26;24.60;;;11.60;;
52742;SDS011;55583;53.012;6.556;2022-07-23T04:16:51;24.67;;;12.05;;
52742;SDS011;55583;53.012;6.556;2022-07-23T04:19:17;27.52;;;11.57;;
52742;SDS011;55583;53.012;6.556;2022-07-23T04:21:42;20.27;;;11.20;;
52742;SDS011;55583;53.012;6.556;2022-07-23T04:24:08;23.27;;;11.45;;
52742;SDS011;55583;53.012;6.556;2022-07-23T04:26:33;24.70;;;11.38;;
52742;SDS011;55583;53.012;6.556;2022-07-23T04:28:59;29.20;;;12.18;;
52742;SDS011;55583;53.012;6.556;2022-07-23T04:31:25;24.67;;;11.35;;
52742;SDS011;55583;53.012;6.556;2022-07-23T04:33:50;22.13;;;9.80;;
52742;SDS011;55583;53.012;6.556;2022-07-23T04:36:16;27.65;;;12.23;;
52742;SDS011;55583;53.012;6.556;2022-07-23T04:38:41;26.10;;;11.90;;
52742;SDS011;55583;53.012;6.556;2022-07-23T04:41:07;24.52;;;12.18;;
52742;SDS011;55583;53.012;6.556;2022-07-23T04:43:32;22.60;;;10.85;;
52742;SDS011;55583;53.012;6.556;2022-07-23T04:45:58;27.30;;;11.80;;
52742;SDS011;55583;53.012;6.556;2022-07-23T04:48:24;22.95;;;11.45;;
52742;SDS011;55583;53.012;6.556;2022-07-23T04:50:49;22.45;;;11.55;;
52742;SDS011;55583;53.012;6.556;2022-07-23T04:53:15;25.58;;;11.45;;
52742;SDS011;55583;53.012;6.556;2022-07-23T04:55:40;25.83;;;11.57;;
52742;SDS011;55583;53.012;6.556;2022-07-23T04:58:06;25.52;;;11.70;;
52742;SDS011;55583;53.012;6.556;2022-07-23T05:00:32;25.52;;;11.98;;
52742;SDS011;55583;53.012;6.556;2022-07-23T05:02:57;25.67;;;12.20;;
52742;SDS011;55583;53.012;6.556;2022-07-23T05:05:23;22.52;;;11.27;;
52742;SDS011;55583;53.012;6.556;2022-07-23T05:07:48;21.75;;;12.05;;
52742;SDS011;55583;53.012;6.556;2022-07-23T05:10:14;19.85;;;10.23;;
52742;SDS011;55583;53.012;6.556;2022-07-23T05:12:40;20.13;;;10.40;;
52742;SDS011;55583;53.012;6.556;2022-07-23T05:15:05;16.38;;;10.10;;
52742;SDS011;55583;53.012;6.556;2022-07-23T05:17:31;22.83;;;10.70;;
52742;SDS011;55583;53.012;6.556;2022-07-23T05:19:57;14.98;;;9.95;;
52742;SDS011;55583;53.012;6.556;2022-07-23T05:22:22;17.98;;;10.98;;
52742;SDS011;55583;53.012;6.556;2022-07-23T05:24:48;15.57;;;10.75;;
52742;SDS011;55583;53.012;6.556;2022-07-23T05:27:13;19.15;;;11.23;;
52742;SDS011;55583;53.012;6.556;2022-07-23T05:29:39;17.77;;;9.82;;
52742;SDS011;55583;53.012;6.556;2022-07-23T05:32:04;18.67;;;10.48;;
52742;SDS011;55583;53.012;6.556;2022-07-23T05:34:30;17.38;;;9.68;;
52742;SDS011;55583;53.012;6.556;2022-07-23T05:36:56;13.05;;;8.27;;
52742;SDS011;55583;53.012;6.556;2022-07-23T05:39:21;13.32;;;8.48;;
52742;SDS011;55583;53.012;6.556;2022-07-23T05:41:47;14.88;;;9.05;;
52742;SDS011;55583;53.012;6.556;2022-07-23T05:44:12;15.02;;;8.15;;
52742;SDS011;55583;53.012;6.556;2022-07-23T05:46:38;13.23;;;7.53;;
52742;SDS011;55583;53.012;6.556;2022-07-23T05:49:04;15.77;;;8.18;;
52742;SDS011;55583;53.012;6.556;2022-07-23T05:51:29;12.90;;;8.43;;
52742;SDS011;55583;53.012;6.556;2022-07-23T05:53:55;17.10;;;7.82;;
52742;SDS011;55583;53.012;6.556;2022-07-23T05:56:20;8.40;;;7.07;;
52742;SDS011;55583;53.012;6.556;2022-07-23T05:58:46;13.25;;;6.45;;
52742;SDS011;55583;53.012;6.556;2022-07-23T06:01:12;6.88;;;6.05;;
52742;SDS011;55583;53.012;6.556;2022-07-23T06:03:38;6.88;;;5.28;;
52742;SDS011;55583;53.012;6.556;2022-07-23T06:06:04;7.88;;;5.18;;
52742;SDS011;55583;53.012;6.556;2022-07-23T06:08:30;6.60;;;4.60;;
52742;SDS011;55583;53.012;6.556;2022-07-23T06:10:56;5.25;;;4.07;;
52742;SDS011;55583;53.012;6.556;2022-07-23T06:13:22;8.90;;;3.63;;
52742;SDS011;55583;53.012;6.556;2022-07-23T06:15:47;9.82;;;3.70;;
52742;SDS011;55583;53.012;6.556;2022-07-23T06:18:13;4.80;;;3.33;;
52742;SDS011;55583;53.012;6.556;2022-07-23T06:20:39;5.20;;;3.60;;
52742;SDS011;55583;53.012;6.556;2022-07-23T06:23:04;7.32;;;3.50;;
52742;SDS011;55583;53.012;6.556;2022-07-23T06:25:31;3.40;;;2.97;;
52742;SDS011;55583;53.012;6.556;2022-07-23T06:27:56;7.57;;;3.00;;
52742;SDS011;55583;53.012;6.556;2022-07-23T06:30:22;7.55;;;2.75;;
52742;SDS011;55583;53.012;6.556;2022-07-23T06:32:48;11.60;;;2.58;;
52742;SDS011;55583;53.012;6.556;2022-07-23T06:35:14;3.53;;;1.98;;
52742;SDS011;55583;53.012;6.556;2022-07-23T06:37:40;3.80;;;2.05;;
52742;SDS011;55583;53.012;6.556;2022-07-23T06:40:06;2.95;;;1.52;;
52742;SDS011;55583;53.012;6.556;2022-07-23T06:42:32;1.77;;;1.42;;
52742;SDS011;55583;53.012;6.556;2022-07-23T06:44:58;3.47;;;1.77;;
52742;SDS011;55583;53.012;6.556;2022-07-23T06:47:23;7.65;;;1.50;;
52742;SDS011;55583;53.012;6.556;2022-07-23T06:49:49;6.75;;;1.20;;
52742;SDS011;55583;53.012;6.556;2022-07-23T06:52:14;3.83;;;1.30;;
52742;SDS011;55583;53.012;6.556;2022-07-23T06:54:40;4.93;;;1.08;;
52742;SDS011;55583;53.012;6.556;2022-07-23T06:57:06;6.05;;;1.30;;
52742;SDS011;55583;53.012;6.556;2022-07-23T06:59:31;4.30;;;1.00;;
52742;SDS011;55583;53.012;6.556;2022-07-23T07:01:58;3.47;;;1.40;;
52742;SDS011;55583;53.012;6.556;2022-07-23T07:04:23;2.15;;;1.70;;
52742;SDS011;55583;53.012;6.556;2022-07-23T07:06:49;3.47;;;1.10;;
52742;SDS011;55583;53.012;6.556;2022-07-23T07:09:15;4.65;;;1.08;;
52742;SDS011;55583;53.012;6.556;2022-07-23T07:11:40;1.92;;;1.00;;
52742;SDS011;55583;53.012;6.556;2022-07-23T07:14:06;4.68;;;1.20;;
52742;SDS011;55583;53.012;6.556;2022-07-23T07:16:32;2.55;;;1.48;;
52742;SDS011;55583;53.012;6.556;2022-07-23T07:18:58;1.98;;;1.13;;
52742;SDS011;55583;53.012;6.556;2022-07-23T07:21:23;4.18;;;1.25;;
52742;SDS011;55583;53.012;6.556;2022-07-23T07:23:49;3.75;;;0.98;;
52742;SDS011;55583;53.012;6.556;2022-07-23T07:26:14;3.95;;;0.95;;
52742;SDS011;55583;53.012;6.556;2022-07-23T07:28:40;3.17;;;0.90;;
52742;SDS011;55583;53.012;6.556;2022-07-23T07:31:06;1.73;;;0.57;;
52742;SDS011;55583;53.012;6.556;2022-07-23T07:33:31;2.80;;;0.63;;
52742;SDS011;55583;53.012;6.556;2022-07-23T07:35:57;4.03;;;1.00;;
52742;SDS011;55583;53.012;6.556;2022-07-23T07:38:23;1.52;;;0.60;;
52742;SDS011;55583;53.012;6.556;2022-07-23T07:40:49;2.13;;;0.52;;
52742;SDS011;55583;53.012;6.556;2022-07-23T07:43:15;3.10;;;0.60;;
52742;SDS011;55583;53.012;6.556;2022-07-23T07:45:40;1.17;;;0.60;;
52742;SDS011;55583;53.012;6.556;2022-07-23T07:48:06;3.35;;;0.75;;
52742;SDS011;55583;53.012;6.556;2022-07-23T07:50:32;1.85;;;0.90;;
52742;SDS011;55583;53.012;6.556;2022-07-23T07:52:57;1.92;;;0.90;;
52742;SDS011;55583;53.012;6.556;2022-07-23T07:55:23;1.10;;;0.68;;
52742;SDS011;55583;53.012;6.556;2022-07-23T07:57:48;3.45;;;0.50;;
52742;SDS011;55583;53.012;6.556;2022-07-23T08:00:14;4.47;;;0.90;;
52742;SDS011;55583;53.012;6.556;2022-07-23T08:05:10;2.42;;;0.63;;
52742;SDS011;55583;53.012;6.556;2022-07-23T08:07:35;1.17;;;0.60;;
52742;SDS011;55583;53.012;6.556;2022-07-23T08:10:02;0.68;;;0.68;;
52742;SDS011;55583;53.012;6.556;2022-07-23T08:12:36;1.13;;;0.85;;
52742;SDS011;55583;53.012;6.556;2022-07-23T08:15:13;0.40;;;0.40;;
52742;SDS011;55583;53.012;6.556;2022-07-23T08:17:41;1.48;;;0.52;;
52742;SDS011;55583;53.012;6.556;2022-07-23T08:20:09;2.20;;;0.55;;
52742;SDS011;55583;53.012;6.556;2022-07-23T08:25:15;1.83;;;0.90;;
52742;SDS011;55583;53.012;6.556;2022-07-23T08:27:44;0.85;;;0.60;;
52742;SDS011;55583;53.012;6.556;2022-07-23T08:30:10;1.42;;;0.65;;
52742;SDS011;55583;53.012;6.556;2022-07-23T08:35:30;1.33;;;0.52;;
52742;SDS011;55583;53.012;6.556;2022-07-23T08:38:01;2.35;;;0.70;;
52742;SDS011;55583;53.012;6.556;2022-07-23T08:40:30;0.82;;;0.50;;
52742;SDS011;55583;53.012;6.556;2022-07-23T08:42:58;1.25;;;0.70;;
52742;SDS011;55583;53.012;6.556;2022-07-23T08:45:25;0.80;;;0.50;;
52742;SDS011;55583;53.012;6.556;2022-07-23T08:47:52;1.98;;;0.55;;
52742;SDS011;55583;53.012;6.556;2022-07-23T08:50:20;3.00;;;0.50;;
52742;SDS011;55583;53.012;6.556;2022-07-23T08:52:51;0.70;;;0.70;;
52742;SDS011;55583;53.012;6.556;2022-07-23T08:55:19;3.22;;;0.70;;
52742;SDS011;55583;53.012;6.556;2022-07-23T08:57:49;0.80;;;0.75;;
52742;SDS011;55583;53.012;6.556;2022-07-23T09:00:17;0.77;;;0.45;;
52742;SDS011;55583;53.012;6.556;2022-07-23T09:02:44;3.72;;;0.70;;
52742;SDS011;55583;53.012;6.556;2022-07-23T09:05:11;1.50;;;0.55;;
52742;SDS011;55583;53.012;6.556;2022-07-23T09:07:38;2.80;;;0.50;;
52742;SDS011;55583;53.012;6.556;2022-07-23T09:13:24;1.88;;;0.57;;
52742;SDS011;55583;53.012;6.556;2022-07-23T09:16:14;1.23;;;0.88;;
52742;SDS011;55583;53.012;6.556;2022-07-23T09:18:45;3.58;;;0.73;;
52742;SDS011;55583;53.012;6.556;2022-07-23T09:23:44;2.28;;;0.75;;
52742;SDS011;55583;53.012;6.556;2022-07-23T09:26:23;2.17;;;0.47;;
52742;SDS011;55583;53.012;6.556;2022-07-23T09:29:24;1.15;;;0.85;;
52742;SDS011;55583;53.012;6.556;2022-07-23T09:32:02;1.42;;;0.60;;
52742;SDS011;55583;53.012;6.556;2022-07-23T09:34:33;0.95;;;0.60;;
52742;SDS011;55583;53.012;6.556;2022-07-23T09:37:10;1.27;;;0.70;;
52742;SDS011;55583;53.012;6.556;2022-07-23T09:39:41;4.38;;;0.50;;
52742;SDS011;55583;53.012;6.556;2022-07-23T09:42:14;3.03;;;1.05;;
52742;SDS011;55583;53.012;6.556;2022-07-23T09:44:48;1.30;;;0.60;;
52742;SDS011;55583;53.012;6.556;2022-07-23T09:47:15;3.90;;;0.70;;
52742;SDS011;55583;53.012;6.556;2022-07-23T09:49:58;0.73;;;0.68;;
52742;SDS011;55583;53.012;6.556;2022-07-23T09:52:28;2.23;;;0.67;;
52742;SDS011;55583;53.012;6.556;2022-07-23T09:54:58;0.95;;;0.45;;
52742;SDS011;55583;53.012;6.556;2022-07-23T09:57:25;1.27;;;0.80;;
52742;SDS011;55583;53.012;6.556;2022-07-23T09:59:52;1.35;;;0.60;;
52742;SDS011;55583;53.012;6.556;2022-07-23T10:02:18;1.67;;;0.70;;
52742;SDS011;55583;53.012;6.556;2022-07-23T10:04:44;2.47;;;0.65;;
52742;SDS011;55583;53.012;6.556;2022-07-23T10:07:11;1.92;;;0.73;;
52742;SDS011;55583;53.012;6.556;2022-07-23T10:09:41;2.63;;;0.75;;
52742;SDS011;55583;53.012;6.556;2022-07-23T10:12:12;3.22;;;0.70;;
52742;SDS011;55583;53.012;6.556;2022-07-23T10:15:10;2.50;;;0.80;;
52742;SDS011;55583;53.012;6.556;2022-07-23T10:17:36;1.30;;;0.70;;
52742;SDS011;55583;53.012;6.556;2022-07-23T10:20:02;1.23;;;0.70;;
52742;SDS011;55583;53.012;6.556;2022-07-23T10:22:36;3.28;;;0.98;;
52742;SDS011;55583;53.012;6.556;2022-07-23T10:27:54;1.05;;;0.85;;
52742;SDS011;55583;53.012;6.556;2022-07-23T10:30:50;3.05;;;1.17;;
52742;SDS011;55583;53.012;6.556;2022-07-23T10:39:06;1.25;;;0.88;;
52742;SDS011;55583;53.012;6.556;2022-07-23T10:41:40;3.08;;;0.70;;
52742;SDS011;55583;53.012;6.556;2022-07-23T10:44:10;3.05;;;1.10;;
52742;SDS011;55583;53.012;6.556;2022-07-23T10:46:54;4.18;;;1.20;;
52742;SDS011;55583;53.012;6.556;2022-07-23T10:49:27;2.85;;;0.88;;
52742;SDS011;55583;53.012;6.556;2022-07-23T10:54:38;1.10;;;0.70;;
52742;SDS011;55583;53.012;6.556;2022-07-23T10:57:09;2.60;;;0.90;;
52742;SDS011;55583;53.012;6.556;2022-07-23T11:02:23;1.10;;;0.90;;
52742;SDS011;55583;53.012;6.556;2022-07-23T11:04:52;2.20;;;0.90;;
52742;SDS011;55583;53.012;6.556;2022-07-23T11:07:19;1.02;;;0.80;;
52742;SDS011;55583;53.012;6.556;2022-07-23T11:09:44;3.35;;;0.70;;
52742;SDS011;55583;53.012;6.556;2022-07-23T11:17:58;1.48;;;0.85;;
52742;SDS011;55583;53.012;6.556;2022-07-23T11:20:27;4.45;;;0.70;;
52742;SDS011;55583;53.012;6.556;2022-07-23T11:22:57;0.70;;;0.68;;
52742;SDS011;55583;53.012;6.556;2022-07-23T11:27:53;2.67;;;0.93;;
52742;SDS011;55583;53.012;6.556;2022-07-23T11:33:15;1.17;;;0.70;;
52742;SDS011;55583;53.012;6.556;2022-07-23T11:35:46;1.00;;;0.70;;
52742;SDS011;55583;53.012;6.556;2022-07-23T11:40:43;3.92;;;1.42;;
52742;SDS011;55583;53.012;6.556;2022-07-23T11:43:10;1.75;;;1.00;;
52742;SDS011;55583;53.012;6.556;2022-07-23T11:45:41;4.18;;;1.38;;
52742;SDS011;55583;53.012;6.556;2022-07-23T11:48:14;1.52;;;1.10;;
52742;SDS011;55583;53.012;6.556;2022-07-23T11:50:42;5.50;;;1.08;;
52742;SDS011;55583;53.012;6.556;2022-07-23T11:53:08;1.90;;;1.20;;
52742;SDS011;55583;53.012;6.556;2022-07-23T11:55:34;5.28;;;1.30;;
52742;SDS011;55583;53.012;6.556;2022-07-23T11:57:59;1.85;;;1.10;;
52742;SDS011;55583;53.012;6.556;2022-07-23T12:00:26;3.53;;;1.27;;
52742;SDS011;55583;53.012;6.556;2022-07-23T12:03:00;2.72;;;1.02;;
52742;SDS011;55583;53.012;6.556;2022-07-23T12:05:31;1.63;;;1.10;;
52742;SDS011;55583;53.012;6.556;2022-07-23T12:07:59;1.88;;;1.10;;
52742;SDS011;55583;53.012;6.556;2022-07-23T12:10:27;3.67;;;1.23;;
52742;SDS011;55583;53.012;6.556;2022-07-23T12:13:04;4.22;;;1.38;;
52742;SDS011;55583;53.012;6.556;2022-07-23T12:15:42;7.68;;;1.67;;
52742;SDS011;55583;53.012;6.556;2022-07-23T12:18:11;6.78;;;1.50;;
52742;SDS011;55583;53.012;6.556;2022-07-23T12:20:42;3.47;;;1.35;;
52742;SDS011;55583;53.012;6.556;2022-07-23T12:23:10;3.20;;;1.17;;
52742;SDS011;55583;53.012;6.556;2022-07-23T12:25:41;1.35;;;1.13;;
52742;SDS011;55583;53.012;6.556;2022-07-23T12:28:19;5.85;;;1.60;;
52742;SDS011;55583;53.012;6.556;2022-07-23T12:30:50;2.35;;;1.52;;
52742;SDS011;55583;53.012;6.556;2022-07-23T12:33:23;4.30;;;1.60;;
52742;SDS011;55583;53.012;6.556;2022-07-23T12:35:58;7.13;;;2.25;;
52742;SDS011;55583;53.012;6.556;2022-07-23T12:38:26;2.17;;;1.33;;
52742;SDS011;55583;53.012;6.556;2022-07-23T12:40:57;2.58;;;1.40;;
52742;SDS011;55583;53.012;6.556;2022-07-23T12:43:25;2.03;;;1.30;;
52742;SDS011;55583;53.012;6.556;2022-07-23T12:46:05;2.53;;;1.20;;
52742;SDS011;55583;53.012;6.556;2022-07-23T12:48:36;5.28;;;1.40;;
52742;SDS011;55583;53.012;6.556;2022-07-23T12:51:04;4.70;;;1.40;;
52742;SDS011;55583;53.012;6.556;2022-07-23T12:53:43;2.13;;;1.40;;
52742;SDS011;55583;53.012;6.556;2022-07-23T12:56:15;3.55;;;1.40;;
52742;SDS011;55583;53.012;6.556;2022-07-23T12:58:49;3.90;;;1.07;;
52742;SDS011;55583;53.012;6.556;2022-07-23T13:04:11;4.88;;;1.40;;
52742;SDS011;55583;53.012;6.556;2022-07-23T13:06:41;2.15;;;1.38;;
52742;SDS011;55583;53.012;6.556;2022-07-23T13:09:17;1.40;;;1.10;;
52742;SDS011;55583;53.012;6.556;2022-07-23T13:11:51;2.03;;;1.23;;
52742;SDS011;55583;53.012;6.556;2022-07-23T13:14:18;4.20;;;1.45;;
52742;SDS011;55583;53.012;6.556;2022-07-23T13:16:45;2.65;;;1.10;;
52742;SDS011;55583;53.012;6.556;2022-07-23T13:19:11;1.90;;;1.27;;
52742;SDS011;55583;53.012;6.556;2022-07-23T13:21:38;2.20;;;1.15;;
52742;SDS011;55583;53.012;6.556;2022-07-23T13:24:04;2.97;;;1.20;;
52742;SDS011;55583;53.012;6.556;2022-07-23T13:26:30;2.65;;;1.13;;
52742;SDS011;55583;53.012;6.556;2022-07-23T13:28:55;1.15;;;1.00;;
52742;SDS011;55583;53.012;6.556;2022-07-23T13:31:21;1.65;;;0.93;;
52742;SDS011;55583;53.012;6.556;2022-07-23T13:33:47;3.33;;;1.60;;
52742;SDS011;55583;53.012;6.556;2022-07-23T13:36:12;1.17;;;0.90;;
52742;SDS011;55583;53.012;6.556;2022-07-23T13:38:38;1.83;;;1.27;;
52742;SDS011;55583;53.012;6.556;2022-07-23T13:41:04;2.53;;;1.42;;
52742;SDS011;55583;53.012;6.556;2022-07-23T13:43:30;7.60;;;1.58;;
52742;SDS011;55583;53.012;6.556;2022-07-23T13:45:56;1.85;;;1.40;;
52742;SDS011;55583;53.012;6.556;2022-07-23T13:48:22;4.65;;;1.52;;
52742;SDS011;55583;53.012;6.556;2022-07-23T13:50:48;2.05;;;0.93;;
52742;SDS011;55583;53.012;6.556;2022-07-23T13:53:16;4.55;;;1.35;;
52742;SDS011;55583;53.012;6.556;2022-07-23T13:55:46;3.33;;;1.23;;
52742;SDS011;55583;53.012;6.556;2022-07-23T13:58:13;2.60;;;1.10;;
52742;SDS011;55583;53.012;6.556;2022-07-23T14:00:41;3.10;;;1.23;;
52742;SDS011;55583;53.012;6.556;2022-07-23T14:03:09;3.83;;;1.00;;
52742;SDS011;55583;53.012;6.556;2022-07-23T14:05:35;1.88;;;1.10;;
52742;SDS011;55583;53.012;6.556;2022-07-23T14:08:00;1.08;;;0.90;;
52742;SDS011;55583;53.012;6.556;2022-07-23T14:10:26;2.95;;;1.00;;
52742;SDS011;55583;53.012;6.556;2022-07-23T14:12:52;10.05;;;1.10;;
52742;SDS011;55583;53.012;6.556;2022-07-23T14:15:21;1.42;;;1.00;;
52742;SDS011;55583;53.012;6.556;2022-07-23T14:17:47;1.88;;;0.80;;
52742;SDS011;55583;53.012;6.556;2022-07-23T14:20:13;1.13;;;1.02;;
52742;SDS011;55583;53.012;6.556;2022-07-23T14:22:40;4.55;;;1.10;;
52742;SDS011;55583;53.012;6.556;2022-07-23T14:25:06;1.42;;;1.13;;
52742;SDS011;55583;53.012;6.556;2022-07-23T14:27:33;3.47;;;1.27;;
52742;SDS011;55583;53.012;6.556;2022-07-23T14:29:59;3.63;;;1.23;;
52742;SDS011;55583;53.012;6.556;2022-07-23T14:32:26;4.55;;;1.73;;
52742;SDS011;55583;53.012;6.556;2022-07-23T14:34:52;3.80;;;1.20;;
52742;SDS011;55583;53.012;6.556;2022-07-23T14:37:18;2.72;;;1.00;;
52742;SDS011;55583;53.012;6.556;2022-07-23T14:39:44;3.22;;;1.38;;
52742;SDS011;55583;53.012;6.556;2022-07-23T14:42:10;5.32;;;1.00;;
52742;SDS011;55583;53.012;6.556;2022-07-23T14:44:36;2.88;;;1.35;;
52742;SDS011;55583;53.012;6.556;2022-07-23T14:47:03;1.60;;;1.25;;
52742;SDS011;55583;53.012;6.556;2022-07-23T14:49:32;1.73;;;1.23;;
52742;SDS011;55583;53.012;6.556;2022-07-23T14:51:58;2.65;;;1.30;;
52742;SDS011;55583;53.012;6.556;2022-07-23T14:54:25;3.22;;;1.10;;
52742;SDS011;55583;53.012;6.556;2022-07-23T14:56:52;1.33;;;1.10;;
52742;SDS011;55583;53.012;6.556;2022-07-23T14:59:18;1.83;;;0.90;;
52742;SDS011;55583;53.012;6.556;2022-07-23T15:01:44;2.05;;;1.00;;
52742;SDS011;55583;53.012;6.556;2022-07-23T15:04:10;0.98;;;0.80;;
52742;SDS011;55583;53.012;6.556;2022-07-23T15:06:35;2.70;;;1.02;;
52742;SDS011;55583;53.012;6.556;2022-07-23T15:09:01;2.17;;;1.55;;
52742;SDS011;55583;53.012;6.556;2022-07-23T15:11:27;4.43;;;1.13;;
52742;SDS011;55583;53.012;6.556;2022-07-23T15:13:56;4.22;;;1.13;;
52742;SDS011;55583;53.012;6.556;2022-07-23T15:16:21;4.15;;;1.20;;
52742;SDS011;55583;53.012;6.556;2022-07-23T15:18:47;2.10;;;0.95;;
52742;SDS011;55583;53.012;6.556;2022-07-23T15:21:13;2.45;;;1.00;;
52742;SDS011;55583;53.012;6.556;2022-07-23T15:23:38;2.53;;;1.05;;
52742;SDS011;55583;53.012;6.556;2022-07-23T15:26:04;2.17;;;0.93;;
52742;SDS011;55583;53.012;6.556;2022-07-23T15:28:30;1.63;;;0.95;;